LTBR/YEI METAR and TAF weather

Enter ICAO airport designator
Station Type Date Time Source
LTBR METAR 2022/01/18 07:50 UTC NOAA

LTBR 180750Z 27009KT 240V310 2000 SHSN BR FEW008 BKN022 BKN080 01/M00 Q1021 TEMPO TL0850 4500 -SHSN


Station Type Date Time Source
LTBR Decoded METAR 2022/01/18 07:50 UTC NOAA

Bursa / Yenisehir, Mil-Civ, Turkey (LTBR) 40-15-19N 029-33-45E
Jan 18, 2022 - 02:50 AM EST / 2022.01.18 0750 UTC
Wind: from the W (270 degrees) at 10 MPH (9 KT) (direction variable):0
Visibility: 1 mile(s):0
Sky conditions: mostly cloudy
Weather: snow showers; mist
Temperature: 33 F (1 C)
Windchill: 24 F (-4 C):1
Dew Point: 32 F (0 C)
Relative Humidity: 93%
Pressure (altimeter): 30.15 in. Hg (1021 hPa)
ob: LTBR 180750Z 27009KT 240V310 2000 SHSN BR FEW008 BKN022 BKN080 01/M00 Q1021 TEMPO TL0850 4500 -SHSN
cycle: 8

Station Type Date Time Source
LTBR TAF 2022/01/18 06:51 UTC NOAA

TAF
AMD TAF
AMD LTBR 180643Z 1806/1906 32012KT 4500 -SHSN BR BKN025 BKN080
TEMPO 1806/1810 33015G25KT 2000 SHSN PROB30
TEMPO 1810/1814 33015G25KT 2000 SHSN
BECMG 1816/1820 VRB02KT 6000 PROB40 1902/1906 33012KT 2000 SHSN BR

Example: see airport list